Time;durP1;ratioP1;P1;durP2;ratioP2;P2;SDS_P1;SDS_P2;PMS_P1;PMS_P2;Temp;Humidity;BMP_temperature;BMP_pressure;BME280_temperature;BME280_humidity;BME280_pressure;Samples;Min_cycle;Max_cycle;Signal;HPM_P1;HPM_P2
2021/04/25 00:01:41;;;;;;;2.37;1.60;;;6.00;99.90;;;;;;4388759;32;20070;-60
2021/04/25 00:04:09;;;;;;;1.60;1.50;;;5.80;99.90;;;;;;4374398;32;20073;-60
2021/04/25 00:06:36;;;;;;;1.98;1.77;;;5.80;99.90;;;;;;4366847;32;20418;-60
2021/04/25 00:09:04;;;;;;;1.58;1.30;;;5.80;99.90;;;;;;4364525;32;20505;-59
2021/04/25 00:11:30;;;;;;;1.95;1.48;;;5.70;99.90;;;;;;4364524;32;20065;-60
2021/04/25 00:13:56;;;;;;;1.65;1.33;;;5.70;99.90;;;;;;4357536;32;20070;-59
2021/04/25 00:16:23;;;;;;;1.37;1.27;;;5.80;99.90;;;;;;4393196;32;20512;-60
2021/04/25 00:18:49;;;;;;;2.03;1.40;;;5.70;99.90;;;;;;4393069;32;20265;-60
2021/04/25 00:21:17;;;;;;;1.45;1.00;;;5.70;99.90;;;;;;4379563;32;20150;-60
2021/04/25 00:23:43;;;;;;;1.15;1.05;;;5.60;99.90;;;;;;4379534;32;20078;-60
2021/04/25 00:26:10;;;;;;;1.75;1.17;;;5.70;99.90;;;;;;4393134;32;20061;-61
2021/04/25 00:28:36;;;;;;;1.70;1.02;;;5.70;99.90;;;;;;4379351;32;20062;-61
2021/04/25 00:31:02;;;;;;;1.62;1.40;;;5.80;99.90;;;;;;4379126;32;20239;-65
2021/04/25 00:33:28;;;;;;;2.08;1.70;;;5.90;99.90;;;;;;4393358;32;20085;-60
2021/04/25 00:35:55;;;;;;;2.15;1.33;;;5.80;99.90;;;;;;4379175;32;20111;-59
2021/04/25 00:38:21;;;;;;;1.30;1.20;;;5.90;99.90;;;;;;4391801;32;20135;-60
2021/04/25 00:40:47;;;;;;;1.35;1.25;;;6.00;99.90;;;;;;4366984;32;20081;-61
2021/04/25 00:43:13;;;;;;;1.50;1.40;;;5.90;99.90;;;;;;4367109;32;20066;-61
2021/04/25 00:45:39;;;;;;;1.27;1.17;;;5.90;99.90;;;;;;4393037;32;20129;-60
2021/04/25 00:48:06;;;;;;;1.92;1.50;;;5.80;99.90;;;;;;4391634;32;20163;-60
2021/04/25 00:50:32;;;;;;;1.67;1.27;;;5.70;99.90;;;;;;4379136;32;20065;-60
2021/04/25 00:52:59;;;;;;;2.80;1.50;;;5.70;99.90;;;;;;4353920;32;20553;-60
2021/04/25 00:55:30;;;;;;;2.37;2.10;;;5.70;99.90;;;;;;4366462;32;20086;-60
2021/04/25 00:57:57;;;;;;;2.75;1.70;;;5.70;99.90;;;;;;4378815;32;20492;-60
2021/04/25 01:00:24;;;;;;;1.48;1.37;;;5.70;99.90;;;;;;4366475;32;20429;-60
2021/04/25 01:02:51;;;;;;;2.37;1.70;;;5.70;99.90;;;;;;4367169;32;20508;-61
2021/04/25 01:05:19;;;;;;;1.73;1.52;;;5.70;99.90;;;;;;4378705;32;20520;-61
2021/04/25 01:07:45;;;;;;;2.40;2.00;;;5.80;99.90;;;;;;4366468;32;20074;-60
2021/04/25 01:10:12;;;;;;;2.60;1.92;;;5.60;99.90;;;;;;4366353;32;20529;-60
2021/04/25 01:12:39;;;;;;;2.42;1.92;;;5.60;99.90;;;;;;4378572;32;20081;-60
2021/04/25 01:15:07;;;;;;;2.28;1.90;;;5.50;99.90;;;;;;4353297;32;20085;-60
2021/04/25 01:17:33;;;;;;;2.08;1.60;;;5.60;99.90;;;;;;4350558;32;20093;-60
2021/04/25 01:20:00;;;;;;;3.22;2.03;;;5.60;99.90;;;;;;4338925;32;20089;-60
2021/04/25 01:22:26;;;;;;;2.45;1.75;;;5.60;99.90;;;;;;4351046;32;20509;-60
2021/04/25 01:24:53;;;;;;;2.47;1.90;;;5.60;99.90;;;;;;4377572;32;20154;-59
2021/04/25 01:27:20;;;;;;;2.87;1.80;;;5.60;99.90;;;;;;4375965;32;20485;-60
2021/04/25 01:29:46;;;;;;;2.95;1.67;;;5.60;99.90;;;;;;4363750;32;20187;-61
2021/04/25 01:32:12;;;;;;;1.98;1.70;;;5.60;99.90;;;;;;4363707;32;20072;-59
2021/04/25 01:34:39;;;;;;;1.90;1.70;;;5.60;99.90;;;;;;4363760;32;20077;-60
2021/04/25 01:37:05;;;;;;;2.08;1.77;;;5.60;99.90;;;;;;4363049;32;20070;-60
2021/04/25 01:39:32;;;;;;;2.47;1.60;;;5.60;99.90;;;;;;4339215;32;20530;-60
2021/04/25 01:41:58;;;;;;;2.28;1.90;;;5.60;99.90;;;;;;4350808;32;20163;-62
2021/04/25 01:44:25;;;;;;;2.55;1.80;;;5.50;99.90;;;;;;4363196;32;20070;-61
2021/04/25 01:46:51;;;;;;;1.70;1.60;;;5.40;99.90;;;;;;4350736;32;20067;-61
2021/04/25 01:49:18;;;;;;;1.90;1.80;;;5.40;99.90;;;;;;4350866;32;20081;-60
2021/04/25 01:51:45;;;;;;;2.50;1.85;;;5.40;99.90;;;;;;4338383;32;20093;-61
2021/04/25 01:54:11;;;;;;;2.90;2.10;;;5.50;99.90;;;;;;4352424;32;20097;-60
2021/04/25 01:56:37;;;;;;;2.53;2.10;;;5.40;99.90;;;;;;4354462;32;20074;-61
2021/04/25 01:59:04;;;;;;;4.07;2.17;;;5.40;99.90;;;;;;4378322;32;20442;-60
2021/04/25 02:01:31;;;;;;;2.72;2.03;;;5.40;99.90;;;;;;4365898;32;20100;-59
2021/04/25 02:03:57;;;;;;;2.62;2.10;;;5.50;99.90;;;;;;4377801;32;20456;-60
2021/04/25 02:06:23;;;;;;;2.62;1.70;;;5.40;99.90;;;;;;4390771;32;20072;-61
2021/04/25 02:08:49;;;;;;;2.20;2.00;;;5.40;99.90;;;;;;4365214;32;20096;-60
2021/04/25 02:11:16;;;;;;;3.90;2.17;;;5.40;99.90;;;;;;4391192;32;20508;-60
2021/04/25 02:13:42;;;;;;;2.83;1.90;;;5.40;99.90;;;;;;4377770;32;20089;-60
2021/04/25 02:16:08;;;;;;;2.45;2.00;;;5.40;99.90;;;;;;4355985;32;20069;-60
2021/04/25 02:18:34;;;;;;;2.30;2.10;;;5.40;99.90;;;;;;4380837;32;20066;-60
2021/04/25 02:21:01;;;;;;;2.90;1.77;;;5.40;99.90;;;;;;4377344;32;20062;-61
2021/04/25 02:23:27;;;;;;;2.85;2.15;;;5.40;99.90;;;;;;4340486;32;20076;-60
2021/04/25 02:25:53;;;;;;;3.08;2.05;;;5.40;99.90;;;;;;4381697;32;20513;-60
2021/04/25 02:28:20;;;;;;;3.67;2.40;;;5.40;99.90;;;;;;4376193;32;20073;-60
2021/04/25 02:30:46;;;;;;;2.45;1.90;;;5.30;99.90;;;;;;4375926;32;20077;-61
2021/04/25 02:33:12;;;;;;;3.12;2.20;;;5.50;99.90;;;;;;4350107;32;20074;-60
2021/04/25 02:35:39;;;;;;;2.95;2.10;;;5.30;99.90;;;;;;4362713;32;20154;-60
2021/04/25 02:38:05;;;;;;;2.85;2.30;;;5.30;99.90;;;;;;4350497;32;20084;-60
2021/04/25 02:40:34;;;;;;;2.67;2.20;;;5.40;99.90;;;;;;4362471;32;20513;-59
2021/04/25 02:43:02;;;;;;;3.62;2.08;;;5.40;99.90;;;;;;4362793;32;20081;-61
2021/04/25 02:45:28;;;;;;;3.12;2.50;;;5.40;99.90;;;;;;4363009;32;20078;-59
2021/04/25 02:48:04;;;;;;;2.05;1.85;;;5.40;99.90;;;;;;4350265;32;20101;-60
2021/04/25 02:50:33;;;;;;;2.83;2.45;;;5.50;99.90;;;;;;4350358;32;20085;-60
2021/04/25 02:52:59;;;;;;;2.62;2.10;;;5.50;99.90;;;;;;4362538;32;20113;-60
2021/04/25 02:55:26;;;;;;;2.67;1.75;;;5.50;99.90;;;;;;4361922;32;20086;-60
2021/04/25 02:57:52;;;;;;;3.17;1.98;;;5.50;99.90;;;;;;4357786;32;20508;-59
2021/04/25 03:00:25;;;;;;;3.75;2.25;;;5.60;99.90;;;;;;4365381;32;20076;-60
2021/04/25 03:02:51;;;;;;;3.15;2.30;;;5.50;99.90;;;;;;4364979;32;20062;-60
2021/04/25 03:05:18;;;;;;;3.28;2.17;;;5.50;99.90;;;;;;4364894;32;20521;-59
2021/04/25 03:07:45;;;;;;;3.28;2.40;;;5.60;99.90;;;;;;4365187;32;20154;-60
2021/04/25 03:10:12;;;;;;;3.47;2.75;;;5.60;99.90;;;;;;4377875;32;20082;-60
2021/04/25 03:12:39;;;;;;;3.08;2.55;;;5.60;99.90;;;;;;4352987;32;20592;-60
2021/04/25 03:15:07;;;;;;;2.78;2.30;;;5.70;99.90;;;;;;4352320;32;20090;-60
2021/04/25 03:17:34;;;;;;;3.62;2.20;;;5.70;99.90;;;;;;4374616;32;20078;-60
2021/04/25 03:20:00;;;;;;;3.22;2.53;;;5.70;99.90;;;;;;4350050;32;20078;-61
2021/04/25 03:22:26;;;;;;;4.43;2.03;;;5.60;99.90;;;;;;4362692;32;20070;-59
2021/04/25 03:24:53;;;;;;;3.65;2.53;;;5.70;99.90;;;;;;4337436;32;20166;-61
2021/04/25 03:27:19;;;;;;;2.70;2.00;;;5.70;99.90;;;;;;4349983;32;20088;-60
2021/04/25 03:29:45;;;;;;;2.85;2.20;;;5.70;99.90;;;;;;4362427;32;20066;-60
2021/04/25 03:32:11;;;;;;;2.65;2.10;;;5.60;99.90;;;;;;4362424;32;20062;-60
2021/04/25 03:34:38;;;;;;;3.70;2.15;;;5.60;99.90;;;;;;4361824;32;20441;-60
2021/04/25 03:37:04;;;;;;;3.15;2.33;;;5.60;99.90;;;;;;4362175;32;20077;-60
2021/04/25 03:39:30;;;;;;;2.92;2.37;;;5.70;99.90;;;;;;4362071;32;20070;-61
2021/04/25 03:41:56;;;;;;;3.80;2.42;;;5.70;99.90;;;;;;4376473;32;20517;-59
2021/04/25 03:44:22;;;;;;;2.60;2.00;;;5.80;99.90;;;;;;4365014;32;20160;-60
2021/04/25 03:46:49;;;;;;;3.40;2.00;;;5.60;99.90;;;;;;4377230;32;20077;-62
2021/04/25 03:49:20;;;;;;;2.67;2.22;;;5.60;99.90;;;;;;4352806;32;20164;-60
2021/04/25 03:51:51;;;;;;;3.17;1.70;;;5.70;99.90;;;;;;4364769;32;20081;-60
2021/04/25 03:54:18;;;;;;;2.35;1.60;;;5.70;99.90;;;;;;4352518;32;20082;-60
2021/04/25 03:56:44;;;;;;;2.37;1.75;;;5.80;99.90;;;;;;4365776;32;20163;-60
2021/04/25 03:59:11;;;;;;;3.45;2.00;;;5.80;99.90;;;;;;4379589;32;20061;-60
2021/04/25 04:01:37;;;;;;;1.70;1.60;;;5.70;99.90;;;;;;4393307;32;20065;-60
2021/04/25 04:04:03;;;;;;;3.30;1.58;;;5.80;99.90;;;;;;4379361;32;20440;-60
2021/04/25 04:06:30;;;;;;;2.37;1.65;;;5.90;99.90;;;;;;4367441;32;20518;-59
2021/04/25 04:08:56;;;;;;;3.33;1.75;;;5.90;99.90;;;;;;4367061;32;20154;-60
2021/04/25 04:11:23;;;;;;;2.50;1.95;;;5.90;99.90;;;;;;4367275;32;20167;-60
2021/04/25 04:13:49;;;;;;;2.85;2.05;;;5.90;99.90;;;;;;4386781;32;20066;-60
2021/04/25 04:16:17;;;;;;;2.20;1.85;;;6.00;99.90;;;;;;4364581;32;20099;-60
2021/04/25 04:18:43;;;;;;;2.40;1.85;;;6.00;99.90;;;;;;4364159;32;20105;-59
2021/04/25 04:21:10;;;;;;;2.33;1.70;;;6.00;99.90;;;;;;4364322;32;20169;-60
2021/04/25 04:23:36;;;;;;;2.12;1.77;;;6.00;99.90;;;;;;4376827;32;20456;-60
2021/04/25 04:26:02;;;;;;;2.47;1.75;;;6.00;99.90;;;;;;4378292;32;20162;-61
2021/04/25 04:28:28;;;;;;;2.67;1.58;;;6.00;99.90;;;;;;4364326;32;20073;-60
2021/04/25 04:30:54;;;;;;;1.95;1.65;;;6.10;99.90;;;;;;4364781;32;20170;-60
2021/04/25 04:33:20;;;;;;;3.33;1.70;;;6.20;99.90;;;;;;4364542;32;20070;-59
2021/04/25 04:35:47;;;;;;;1.67;1.50;;;6.30;99.90;;;;;;4364169;32;20073;-60
2021/04/25 04:38:13;;;;;;;2.50;1.77;;;6.50;99.90;;;;;;4364107;32;20505;-60
2021/04/25 04:40:39;;;;;;;2.55;1.42;;;6.40;99.90;;;;;;4377410;32;20086;-60
2021/04/25 04:43:05;;;;;;;2.90;1.42;;;6.60;99.90;;;;;;4377028;32;20103;-59
2021/04/25 04:45:32;;;;;;;2.30;1.50;;;7.90;99.90;;;;;;4376841;32;20531;-60
2021/04/25 04:47:58;;;;;;;2.17;1.50;;;7.70;99.90;;;;;;4364280;32;20171;-61
2021/04/25 04:50:24;;;;;;;2.65;1.75;;;8.30;99.90;;;;;;4378075;32;20063;-60
2021/04/25 04:52:51;;;;;;;3.33;1.75;;;7.80;99.90;;;;;;4339706;32;20073;-60
2021/04/25 04:55:17;;;;;;;3.72;1.40;;;8.20;99.90;;;;;;4339145;32;20519;-60
2021/04/25 04:57:43;;;;;;;1.27;1.17;;;8.00;99.90;;;;;;4370988;32;20500;-60
2021/04/25 05:00:11;;;;;;;3.00;1.58;;;8.20;99.90;;;;;;4379203;32;20077;-61
2021/04/25 05:02:37;;;;;;;2.17;1.15;;;8.20;99.90;;;;;;4378839;32;20065;-61
2021/04/25 05:05:06;;;;;;;2.33;1.42;;;8.30;99.90;;;;;;4378840;32;20053;-60
2021/04/25 05:07:33;;;;;;;2.25;1.77;;;8.60;99.90;;;;;;4391068;32;20453;-60
2021/04/25 05:09:59;;;;;;;1.33;1.20;;;8.30;99.90;;;;;;4366306;32;20070;-61
2021/04/25 05:12:26;;;;;;;1.58;1.30;;;8.30;99.90;;;;;;4391080;32;20534;-60
2021/04/25 05:14:52;;;;;;;2.12;1.25;;;7.90;99.90;;;;;;4379794;32;20069;-60
2021/04/25 05:17:18;;;;;;;1.33;1.23;;;8.20;99.90;;;;;;4351311;32;20101;-61
2021/04/25 05:19:44;;;;;;;2.33;1.40;;;7.70;99.90;;;;;;4376179;32;20078;-61
2021/04/25 05:22:10;;;;;;;1.62;1.25;;;7.40;99.90;;;;;;4377476;32;20067;-60
2021/04/25 05:24:37;;;;;;;2.47;1.30;;;7.50;99.90;;;;;;4351273;32;20093;-60
2021/04/25 05:27:03;;;;;;;1.98;1.20;;;7.20;99.90;;;;;;4375680;32;20152;-60
2021/04/25 05:29:30;;;;;;;1.67;1.27;;;7.00;99.90;;;;;;4350968;32;20084;-61
2021/04/25 05:31:56;;;;;;;2.83;1.25;;;7.00;99.90;;;;;;4363341;32;20596;-60
2021/04/25 05:34:23;;;;;;;1.60;1.27;;;6.80;99.90;;;;;;4338981;32;20074;-61
2021/04/25 05:36:49;;;;;;;2.65;1.30;;;6.70;99.90;;;;;;4363664;32;20141;-61
2021/04/25 05:39:15;;;;;;;2.03;1.20;;;6.60;99.90;;;;;;4363805;32;20077;-60
2021/04/25 05:41:41;;;;;;;2.85;1.17;;;6.60;99.90;;;;;;4338707;32;20460;-61
2021/04/25 05:44:08;;;;;;;2.78;1.37;;;6.50;99.90;;;;;;4376446;32;20186;-61
2021/04/25 05:46:35;;;;;;;2.00;1.33;;;6.40;99.90;;;;;;4350946;32;20179;-60
2021/04/25 05:49:01;;;;;;;2.28;1.33;;;6.40;99.90;;;;;;4363593;32;20147;-59
2021/04/25 05:51:27;;;;;;;2.30;1.25;;;6.20;99.90;;;;;;4375864;32;20150;-61
2021/04/25 05:53:53;;;;;;;2.15;1.10;;;6.60;99.90;;;;;;4375255;32;20082;-60
2021/04/25 05:56:20;;;;;;;1.40;1.30;;;6.50;99.90;;;;;;4375425;32;20121;-60
2021/04/25 05:58:47;;;;;;;2.92;1.40;;;6.50;99.90;;;;;;4364512;32;20070;-60
2021/04/25 06:01:14;;;;;;;1.58;1.10;;;6.30;99.90;;;;;;4366182;32;20070;-60
2021/04/25 06:03:41;;;;;;;2.17;1.40;;;6.20;99.90;;;;;;4365317;32;20104;-60
2021/04/25 06:06:07;;;;;;;1.95;1.40;;;6.20;99.90;;;;;;4377952;32;20158;-59
2021/04/25 06:08:33;;;;;;;1.77;1.30;;;6.10;99.90;;;;;;4377909;32;20081;-60
2021/04/25 06:10:59;;;;;;;1.75;1.42;;;6.10;99.90;;;;;;4390229;32;20143;-60
2021/04/25 06:13:26;;;;;;;3.20;1.67;;;5.90;99.90;;;;;;4375658;32;20070;-61
2021/04/25 06:15:52;;;;;;;1.35;1.17;;;5.90;99.90;;;;;;4376848;32;20529;-59
2021/04/25 06:18:18;;;;;;;1.45;1.35;;;5.90;99.90;;;;;;4363824;32;20069;-61
2021/04/25 06:20:44;;;;;;;0.80;0.80;;;5.90;99.90;;;;;;4366463;32;20520;-64
2021/04/25 06:23:13;;;;;;;2.53;1.30;;;5.90;99.90;;;;;;4378112;32;20066;-60
2021/04/25 06:25:40;;;;;;;1.40;1.12;;;6.00;99.90;;;;;;4364346;32;20453;-61
2021/04/25 06:28:07;;;;;;;1.65;1.10;;;6.10;99.90;;;;;;4351167;32;20066;-60
2021/04/25 06:30:33;;;;;;;2.22;1.50;;;5.90;99.90;;;;;;4363014;32;20074;-60
2021/04/25 06:32:59;;;;;;;2.60;1.42;;;6.20;99.90;;;;;;4350457;32;20077;-59
2021/04/25 06:35:25;;;;;;;1.83;1.15;;;6.30;99.90;;;;;;4362508;32;20069;-60
2021/04/25 06:37:52;;;;;;;2.00;1.12;;;6.20;99.90;;;;;;4362374;32;20102;-61
2021/04/25 06:40:20;;;;;;;2.22;1.00;;;6.10;99.90;;;;;;4362551;32;20138;-60
2021/04/25 06:42:47;;;;;;;2.58;1.08;;;6.30;99.90;;;;;;4350485;32;20123;-61
2021/04/25 06:45:20;;;;;;;1.35;1.20;;;6.80;99.90;;;;;;4350336;32;20093;-61
2021/04/25 06:47:47;;;;;;;2.87;1.00;;;6.60;99.90;;;;;;4362894;32;20448;-60
2021/04/25 06:50:14;;;;;;;4.60;1.35;;;6.40;99.90;;;;;;4362589;32;20073;-60
2021/04/25 06:52:42;;;;;;;3.67;1.10;;;6.30;99.90;;;;;;4337806;32;20094;-60
2021/04/25 06:55:12;;;;;;;1.60;0.95;;;6.40;99.90;;;;;;4362272;32;20516;-60
2021/04/25 06:57:38;;;;;;;1.60;1.20;;;6.70;99.90;;;;;;4381780;32;20136;-61
2021/04/25 07:00:05;;;;;;;2.47;1.15;;;6.50;99.90;;;;;;4389888;32;20082;-59
2021/04/25 07:02:31;;;;;;;2.05;1.00;;;6.30;99.90;;;;;;4365062;32;20089;-60
2021/04/25 07:04:58;;;;;;;2.08;1.20;;;6.30;99.90;;;;;;4377060;32;20077;-60
2021/04/25 07:07:24;;;;;;;2.25;1.30;;;6.40;99.90;;;;;;4377441;32;20082;-60
2021/04/25 07:09:50;;;;;;;3.45;1.10;;;6.30;99.90;;;;;;4389741;32;20535;-61
2021/04/25 07:12:16;;;;;;;1.02;0.95;;;6.10;99.90;;;;;;4365067;32;20058;-60
2021/04/25 07:14:42;;;;;;;1.48;0.93;;;6.20;99.90;;;;;;4380335;32;20067;-60
2021/04/25 07:17:09;;;;;;;3.22;0.93;;;6.40;99.90;;;;;;4365050;32;20086;-61
2021/04/25 07:19:35;;;;;;;1.33;1.17;;;6.60;99.90;;;;;;4379118;32;20094;-60
2021/04/25 07:22:04;;;;;;;1.10;0.90;;;6.70;99.90;;;;;;4377827;32;20068;-60
2021/04/25 07:24:31;;;;;;;1.15;1.00;;;6.90;99.90;;;;;;4353542;32;20063;-61
2021/04/25 07:26:57;;;;;;;4.00;1.75;;;7.30;99.90;;;;;;4353005;32;20081;-61
2021/04/25 07:29:24;;;;;;;2.70;1.27;;;6.80;99.90;;;;;;4379077;32;20185;-60
2021/04/25 07:31:50;;;;;;;1.98;1.33;;;7.00;99.90;;;;;;4393825;32;20069;-62
2021/04/25 07:34:17;;;;;;;2.25;1.42;;;7.40;99.90;;;;;;4367943;32;20088;-61
2021/04/25 07:36:43;;;;;;;1.30;1.20;;;7.20;99.90;;;;;;4355557;32;20516;-61
2021/04/25 07:39:10;;;;;;;1.90;1.65;;;6.80;99.90;;;;;;4368107;32;20077;-61
2021/04/25 07:41:36;;;;;;;2.95;1.35;;;6.90;99.90;;;;;;4394692;32;20101;-61
2021/04/25 07:44:02;;;;;;;4.00;1.42;;;7.10;99.90;;;;;;4380166;32;20456;-61
2021/04/25 07:46:29;;;;;;;0.85;0.80;;;7.20;99.90;;;;;;4355138;32;20105;-63
2021/04/25 07:48:55;;;;;;;2.00;1.00;;;7.30;99.90;;;;;;4379719;32;20073;-60
2021/04/25 07:51:21;;;;;;;1.87;1.40;;;7.60;99.90;;;;;;4379789;32;20066;-60
2021/04/25 07:53:51;;;;;;;1.33;1.15;;;7.30;99.90;;;;;;4392273;32;20081;-60
2021/04/25 07:56:18;;;;;;;1.85;1.33;;;7.30;99.90;;;;;;4368115;32;20071;-60
2021/04/25 07:58:44;;;;;;;2.00;1.30;;;7.30;99.90;;;;;;4367347;32;20500;-61
2021/04/25 08:01:11;;;;;;;1.85;1.10;;;7.60;99.90;;;;;;4379891;32;20150;-60
2021/04/25 08:03:37;;;;;;;3.85;2.12;;;8.00;99.90;;;;;;4367120;32;20070;-61
2021/04/25 08:06:05;;;;;;;2.58;1.48;;;7.90;99.90;;;;;;4393611;32;20166;-60
2021/04/25 08:08:31;;;;;;;3.35;1.20;;;8.50;99.90;;;;;;4367441;32;20158;-62
2021/04/25 08:10:58;;;;;;;3.75;1.10;;;8.00;99.90;;;;;;4367311;32;20070;-61
2021/04/25 08:13:24;;;;;;;3.20;0.98;;;8.00;99.90;;;;;;4352393;32;20081;-60
2021/04/25 08:15:51;;;;;;;4.10;1.30;;;8.00;99.90;;;;;;4352042;32;20186;-61
2021/04/25 08:18:17;;;;;;;2.00;1.27;;;7.80;99.90;;;;;;4351942;32;20066;-61
2021/04/25 08:20:43;;;;;;;3.67;1.20;;;7.80;99.90;;;;;;4352961;32;20168;-60
2021/04/25 08:23:09;;;;;;;1.67;1.30;;;7.90;99.90;;;;;;4364901;32;20166;-61
2021/04/25 08:25:36;;;;;;;1.58;1.20;;;7.80;99.90;;;;;;4352595;32;20090;-61
2021/04/25 08:28:02;;;;;;;2.30;1.10;;;7.50;99.90;;;;;;4377754;32;20591;-60
2021/04/25 08:30:29;;;;;;;1.17;0.93;;;7.80;99.90;;;;;;4339310;32;20444;-59
2021/04/25 08:32:55;;;;;;;1.10;1.00;;;7.60;99.90;;;;;;4352366;32;20097;-61
2021/04/25 08:35:22;;;;;;;3.00;1.10;;;7.70;99.90;;;;;;4376609;32;20073;-61
2021/04/25 08:37:48;;;;;;;2.37;1.20;;;7.90;99.90;;;;;;4364185;32;20074;-61
2021/04/25 08:40:14;;;;;;;2.92;1.05;;;7.90;99.90;;;;;;4351662;32;20058;-60
2021/04/25 08:42:42;;;;;;;1.00;0.90;;;8.00;99.90;;;;;;4364155;32;20085;-61
2021/04/25 08:45:09;;;;;;;1.25;1.00;;;7.90;99.90;;;;;;4364935;32;20163;-61
2021/04/25 08:48:02;;;;;;;2.75;1.30;;;8.00;99.80;;;;;;4364551;32;20073;-60
2021/04/25 08:50:30;;;;;;;2.17;1.20;;;8.00;99.60;;;;;;4374785;32;20074;-60
2021/04/25 08:52:57;;;;;;;6.18;1.10;;;8.10;99.90;;;;;;4351513;32;20167;-60
2021/04/25 08:55:24;;;;;;;1.65;0.80;;;7.90;99.90;;;;;;4351382;32;20087;-60
2021/04/25 08:57:51;;;;;;;1.00;0.90;;;7.80;99.90;;;;;;4359623;32;20497;-60
2021/04/25 09:00:18;;;;;;;1.58;0.80;;;7.80;99.80;;;;;;4366378;32;20088;-61
2021/04/25 09:02:45;;;;;;;1.17;0.77;;;7.90;99.30;;;;;;4379634;32;20756;-60
2021/04/25 09:05:12;;;;;;;1.80;1.00;;;7.80;99.90;;;;;;4368813;32;20097;-63
2021/04/25 09:07:55;;;;;;;1.48;0.80;;;7.80;99.70;;;;;;4368993;32;20105;-60
2021/04/25 09:10:30;;;;;;;1.37;0.77;;;8.10;98.80;;;;;;4382552;32;20493;-60
2021/04/25 09:12:56;;;;;;;1.70;0.70;;;8.00;99.50;;;;;;4385817;32;20100;-60
2021/04/25 09:15:24;;;;;;;2.00;1.42;;;8.20;99.10;;;;;;4367160;32;20065;-60
2021/04/25 09:18:01;;;;;;;0.98;0.68;;;8.00;99.30;;;;;;4366825;32;20058;-61
2021/04/25 09:20:36;;;;;;;1.83;0.70;;;8.50;97.30;;;;;;4357616;32;20078;-61
2021/04/25 09:23:03;;;;;;;1.15;1.00;;;8.40;97.80;;;;;;4369555;32;20082;-60
2021/04/25 09:25:29;;;;;;;1.00;0.68;;;8.70;95.60;;;;;;4377648;32;20076;-61
2021/04/25 09:28:09;;;;;;;1.48;0.85;;;8.30;99.50;;;;;;4377825;32;20147;-60
2021/04/25 09:30:35;;;;;;;2.12;1.27;;;8.20;99.10;;;;;;4365739;32;20085;-66
2021/04/25 09:33:09;;;;;;;1.20;0.95;;;7.80;99.90;;;;;;4387595;32;20074;-60
2021/04/25 09:35:36;;;;;;;1.70;1.00;;;7.50;99.90;;;;;;4364102;32;20097;-62
2021/04/25 09:38:13;;;;;;;2.25;1.48;;;7.60;99.90;;;;;;4363489;32;20507;-60
2021/04/25 09:40:48;;;;;;;;;;;7.60;99.90;;;;;;4352184;32;20588;-61
2021/04/25 09:43:15;;;;;;;1.95;1.40;;;7.70;99.90;;;;;;4376092;32;20038;-60
2021/04/25 09:45:50;;;;;;;1.20;1.00;;;7.60;99.90;;;;;;4364298;32;20074;-60
2021/04/25 09:48:34;;;;;;;1.70;0.93;;;7.50;99.90;;;;;;4364466;32;20081;-61
2021/04/25 09:51:18;;;;;;;1.48;1.20;;;7.40;99.90;;;;;;4363371;32;20089;-61
2021/04/25 09:53:53;;;;;;;2.03;0.77;;;7.60;99.90;;;;;;4339179;32;20058;-60
2021/04/25 09:56:47;;;;;;;1.45;1.15;;;8.00;99.90;;;;;;4377104;32;20441;-60
2021/04/25 09:59:13;;;;;;;4.47;1.20;;;8.10;99.90;;;;;;4343605;32;20153;-61
2021/04/25 10:01:43;;;;;;;1.12;0.70;;;8.50;99.90;;;;;;4376869;32;20070;-60
2021/04/25 10:04:35;;;;;;;1.70;1.17;;;8.20;99.90;;;;;;4351693;32;20170;-60
2021/04/25 10:07:02;;;;;;;3.53;1.08;;;8.50;99.90;;;;;;4352758;32;20078;-61
2021/04/25 10:09:29;;;;;;;2.50;1.00;;;8.30;99.90;;;;;;4364038;32;20062;-61
2021/04/25 10:12:00;;;;;;;1.80;1.30;;;8.30;99.90;;;;;;4375769;32;20073;-60
2021/04/25 10:14:27;;;;;;;1.52;1.10;;;8.20;99.90;;;;;;4384491;32;20074;-60
2021/04/25 10:16:56;;;;;;;1.35;0.90;;;8.30;99.90;;;;;;4381111;32;20085;-59
2021/04/25 10:19:22;;;;;;;1.50;0.98;;;8.50;99.90;;;;;;4379552;32;20488;-60
2021/04/25 10:21:48;;;;;;;2.22;0.93;;;8.80;98.30;;;;;;4390461;32;20493;-60
2021/04/25 10:24:19;;;;;;;1.40;1.17;;;9.10;96.10;;;;;;4365326;32;20170;-61
2021/04/25 10:27:08;;;;;;;2.03;1.30;;;9.40;94.90;;;;;;4366183;32;20084;-60
2021/04/25 10:30:07;;;;;;;2.20;1.20;;;9.20;95.00;;;;;;4378282;32;20085;-61
2021/04/25 10:32:34;;;;;;;1.33;1.00;;;8.90;93.70;;;;;;4365734;32;20524;-60
2021/04/25 10:35:21;;;;;;;1.30;1.10;;;9.10;92.70;;;;;;4390227;32;20074;-60
2021/04/25 10:37:49;;;;;;;2.35;0.95;;;9.30;89.80;;;;;;4378136;32;20108;-60
2021/04/25 10:40:31;;;;;;;4.32;1.27;;;9.20;92.00;;;;;;4365503;32;20085;-60
2021/04/25 10:43:02;;;;;;;2.72;1.25;;;8.90;90.70;;;;;;4377945;32;20149;-60
2021/04/25 10:45:34;;;;;;;3.03;1.15;;;8.90;90.30;;;;;;4390001;32;20066;-59
2021/04/25 10:48:21;;;;;;;2.45;1.10;;;9.40;87.30;;;;;;4377763;32;20065;-61
2021/04/25 10:50:56;;;;;;;0.90;0.82;;;9.40;83.00;;;;;;4377477;32;20494;-61
2021/04/25 10:53:28;;;;;;;2.37;1.17;;;9.30;86.00;;;;;;4377425;32;20085;-60
2021/04/25 10:56:16;;;;;;;4.72;1.30;;;9.10;83.10;;;;;;4377656;32;20069;-60
2021/04/25 10:58:43;;;;;;;4.50;1.20;;;9.00;82.30;;;;;;4390039;32;20070;-61
2021/04/25 11:01:39;;;;;;;1.17;1.08;;;9.20;80.80;;;;;;4383387;32;20081;-59
2021/04/25 11:04:07;;;;;;;1.15;0.80;;;8.90;78.90;;;;;;4368381;32;20081;-60
2021/04/25 11:06:33;;;;;;;4.00;1.10;;;9.10;78.30;;;;;;4377217;32;20057;-61
2021/04/25 11:09:01;;;;;;;3.37;1.27;;;9.40;80.80;;;;;;4390034;32;20106;-61
2021/04/25 11:11:35;;;;;;;2.37;1.50;;;9.40;75.80;;;;;;4365673;32;20085;-60
2021/04/25 11:14:02;;;;;;;3.67;1.33;;;9.40;75.10;;;;;;4371652;32;20075;-59
2021/04/25 11:16:31;;;;;;;11.12;1.50;;;9.10;72.50;;;;;;4362525;32;20081;-60
2021/04/25 11:19:10;;;;;;;3.20;1.42;;;9.00;72.10;;;;;;4362288;32;20074;-61
2021/04/25 11:21:47;;;;;;;4.90;1.42;;;9.00;68.10;;;;;;4338267;32;20051;-60
2021/04/25 11:24:13;;;;;;;2.15;1.15;;;9.30;67.00;;;;;;4362765;32;20081;-60
2021/04/25 11:26:45;;;;;;;4.28;1.10;;;9.30;63.80;;;;;;4362170;32;20533;-61
2021/04/25 11:29:20;;;;;;;2.62;1.23;;;9.30;63.50;;;;;;4362189;32;20081;-60
2021/04/25 11:31:46;;;;;;;4.93;1.90;;;9.50;65.00;;;;;;4362530;32;20642;-61
2021/04/25 11:34:29;;;;;;;2.37;1.23;;;9.10;66.20;;;;;;4374479;32;20077;-59
2021/04/25 11:37:08;;;;;;;1.73;1.00;;;9.30;65.90;;;;;;4361916;32;20166;-61
2021/04/25 11:39:42;;;;;;;1.83;1.40;;;9.30;64.90;;;;;;4362243;32;20166;-60
2021/04/25 11:42:10;;;;;;;4.00;1.10;;;9.90;62.90;;;;;;4362580;32;20071;-59
2021/04/25 11:44:38;;;;;;;1.95;1.23;;;10.20;59.60;;;;;;4362387;32;20152;-62
2021/04/25 11:47:09;;;;;;;2.25;1.20;;;9.80;61.00;;;;;;4362686;32;20077;-59
2021/04/25 11:49:41;;;;;;;1.48;1.27;;;9.60;60.20;;;;;;4362343;32;20077;-59
2021/04/25 11:52:16;;;;;;;3.65;1.12;;;9.40;57.00;;;;;;4350750;32;20093;-60
2021/04/25 11:54:44;;;;;;;2.67;1.15;;;9.60;55.10;;;;;;4374628;32;20105;-60
2021/04/25 11:57:20;;;;;;;5.00;1.67;;;10.10;52.50;;;;;;4353517;32;20086;-61
2021/04/25 11:59:58;;;;;;;;;;;10.30;53.60;;;;;;4366280;32;20139;-59
2021/04/25 12:02:28;;;;;;;1.98;1.30;;;10.30;52.80;;;;;;4378247;32;19973;-59
2021/04/25 12:05:23;;;;;;;3.78;1.30;;;10.10;51.10;;;;;;4379898;32;20505;-60
2021/04/25 12:08:06;;;;;;;4.82;1.50;;;10.10;52.30;;;;;;4379482;32;20078;-60
2021/04/25 12:10:39;;;;;;;3.20;1.17;;;9.70;52.40;;;;;;4392334;32;20077;-60
2021/04/25 12:13:16;;;;;;;2.72;1.50;;;10.20;50.60;;;;;;4378880;32;20070;-62
2021/04/25 12:15:50;;;;;;;2.35;1.23;;;10.60;49.40;;;;;;4352710;32;20054;-60
2021/04/25 12:18:28;;;;;;;1.75;1.17;;;11.10;46.00;;;;;;4365058;32;20090;-60
2021/04/25 12:21:00;;;;;;;1.62;1.20;;;10.70;48.40;;;;;;4365954;32;20070;-61
2021/04/25 12:23:34;;;;;;;1.25;1.08;;;10.30;49.50;;;;;;4364527;32;20069;-60
2021/04/25 12:26:13;;;;;;;4.28;1.25;;;10.00;49.20;;;;;;4352593;32;20666;-60
2021/04/25 12:28:45;;;;;;;2.60;1.00;;;10.10;50.80;;;;;;4352860;32;20081;-60
2021/04/25 12:31:13;;;;;;;3.33;1.60;;;10.00;49.80;;;;;;4376642;32;20056;-60
2021/04/25 12:33:48;;;;;;;2.08;1.17;;;10.50;48.90;;;;;;4365139;32;20074;-60
2021/04/25 12:36:16;;;;;;;2.72;1.35;;;10.70;47.80;;;;;;4364154;32;20062;-59
2021/04/25 12:38:43;;;;;;;1.75;0.98;;;10.50;48.10;;;;;;4352290;32;20070;-60
2021/04/25 12:41:13;;;;;;;1.30;1.20;;;10.40;49.90;;;;;;4352496;32;20142;-60
2021/04/25 12:43:49;;;;;;;2.45;1.55;;;10.70;48.80;;;;;;4352378;32;20073;-62
2021/04/25 12:46:26;;;;;;;1.70;1.10;;;11.00;47.40;;;;;;4377920;32;20086;-61
2021/04/25 12:48:58;;;;;;;6.60;1.67;;;10.70;45.80;;;;;;4353004;32;20175;-60
2021/04/25 12:51:43;;;;;;;3.92;1.58;;;11.10;46.20;;;;;;4364388;32;20090;-59
2021/04/25 12:54:14;;;;;;;8.07;1.80;;;10.30;45.50;;;;;;4352230;32;20153;-61
2021/04/25 12:56:41;;;;;;;2.50;1.05;;;10.50;46.40;;;;;;4352471;32;20155;-59
2021/04/25 12:59:16;;;;;;;6.20;1.45;;;10.20;47.00;;;;;;4378876;32;20159;-59
2021/04/25 13:01:50;;;;;;;4.80;1.48;;;9.90;47.10;;;;;;4391456;32;20416;-60
2021/04/25 13:04:33;;;;;;;5.05;1.70;;;10.00;48.00;;;;;;4379282;32;20080;-60
2021/04/25 13:07:34;;;;;;;7.50;1.73;;;10.60;47.50;;;;;;4391532;32;20145;-60